createdAt,value
2018-04-23T00:00:12.364Z,7.67
2018-04-23T00:02:39.774Z,7.50
2018-04-23T00:05:08.007Z,7.20
2018-04-23T00:07:37.107Z,8.00
2018-04-23T00:10:04.544Z,7.47
2018-04-23T00:12:31.975Z,8.10
2018-04-23T00:14:59.450Z,7.90
2018-04-23T00:17:26.923Z,7.87
2018-04-23T00:19:54.380Z,8.20
2018-04-23T00:22:21.857Z,8.60
2018-04-23T00:24:49.316Z,8.57
2018-04-23T00:27:16.802Z,8.60
2018-04-23T00:29:44.228Z,7.90
2018-04-23T00:32:12.439Z,8.90
2018-04-23T00:34:40.602Z,8.77
2018-04-23T00:37:08.810Z,8.53
2018-04-23T00:39:37.958Z,8.70
2018-04-23T00:42:05.436Z,9.00
2018-04-23T00:44:32.865Z,14.30
2018-04-23T00:47:00.381Z,9.77
2018-04-23T00:49:27.836Z,9.97
2018-04-23T00:51:55.332Z,8.33
2018-04-23T00:54:22.791Z,9.88
2018-04-23T00:56:50.373Z,9.40
2018-04-23T00:59:19.312Z,9.07
2018-04-23T01:01:46.758Z,10.10
2018-04-23T01:04:14.177Z,9.90
2018-04-23T01:06:41.648Z,10.00
2018-04-23T01:09:09.112Z,10.40
2018-04-23T01:11:36.667Z,10.27
2018-04-23T01:14:04.156Z,10.17
2018-04-23T01:16:31.615Z,9.93
2018-04-23T01:18:59.034Z,11.37
2018-04-23T01:21:27.208Z,10.30
2018-04-23T01:23:54.644Z,11.67
2018-04-23T01:26:23.101Z,11.70
2018-04-23T01:28:51.328Z,11.77
2018-04-23T01:31:18.751Z,11.67
2018-04-23T01:33:46.188Z,11.60
2018-04-23T01:36:13.629Z,11.60
2018-04-23T01:38:41.210Z,11.83
2018-04-23T01:41:09.568Z,12.18
2018-04-23T01:43:37.068Z,12.60
2018-04-23T01:46:04.484Z,12.47
2018-04-23T01:48:32.004Z,12.77
2018-04-23T01:50:59.425Z,12.90
2018-04-23T01:53:26.854Z,13.50
2018-04-23T01:55:54.379Z,14.50
2018-04-23T01:58:22.652Z,14.67
2018-04-23T02:00:50.069Z,14.17
2018-04-23T02:03:17.535Z,14.70
2018-04-23T02:05:44.980Z,15.60
2018-04-23T02:08:12.457Z,14.95
2018-04-23T02:10:39.941Z,16.27
2018-04-23T02:13:07.448Z,16.20
2018-04-23T02:15:34.881Z,16.93
2018-04-23T02:18:02.339Z,16.40
2018-04-23T02:20:29.789Z,17.13
2018-04-23T02:22:57.335Z,18.03
2018-04-23T02:25:24.887Z,18.43
2018-04-23T02:27:52.321Z,17.40
2018-04-23T02:30:19.822Z,19.47
2018-04-23T02:32:47.237Z,17.92
2018-04-23T02:35:14.777Z,17.57
2018-04-23T02:37:42.341Z,18.67
2018-04-23T02:40:10.568Z,17.73
2018-04-23T02:42:37.993Z,18.90
2018-04-23T02:45:05.472Z,18.87
2018-04-23T02:47:33.010Z,18.50
2018-04-23T02:50:00.465Z,17.70
2018-04-23T02:52:27.965Z,19.40
2018-04-23T02:54:55.454Z,20.33
2018-04-23T02:57:22.891Z,19.27
2018-04-23T02:59:50.321Z,19.90
2018-04-23T03:02:18.570Z,19.27
2018-04-23T03:04:45.961Z,19.50
2018-04-23T03:07:13.491Z,18.60
2018-04-23T03:09:40.976Z,16.87
2018-04-23T03:12:08.417Z,15.00
2018-04-23T03:14:35.852Z,13.13
2018-04-23T03:17:04.119Z,15.33
2018-04-23T03:19:31.663Z,13.20
2018-04-23T03:21:59.119Z,13.40
2018-04-23T03:24:26.687Z,13.63
2018-04-23T03:26:54.142Z,15.57
2018-04-23T03:29:22.340Z,15.23
2018-04-23T03:31:49.778Z,15.73
2018-04-23T03:34:17.975Z,16.60
2018-04-23T03:36:46.159Z,15.80
2018-04-23T03:39:14.346Z,14.50
2018-04-23T03:41:42.588Z,15.60
2018-04-23T03:44:11.717Z,15.57
2018-04-23T03:46:40.892Z,15.30
2018-04-23T03:49:08.380Z,14.90
2018-04-23T03:51:35.838Z,15.57
2018-04-23T03:54:03.409Z,15.07
2018-04-23T03:56:30.843Z,15.40
2018-04-23T03:58:59.083Z,16.30
2018-04-23T04:01:26.562Z,15.97
2018-04-23T04:03:54.113Z,16.70
2018-04-23T04:06:21.556Z,17.37
2018-04-23T04:08:49.029Z,18.63
2018-04-23T04:11:16.487Z,17.37
2018-04-23T04:13:55.841Z,18.00
2018-04-23T04:16:35.375Z,17.47
2018-04-23T04:19:02.803Z,18.10
2018-04-23T04:21:30.226Z,17.80
2018-04-23T04:23:57.680Z,16.67
2018-04-23T04:26:25.096Z,17.30
2018-04-23T04:28:52.529Z,14.70
2018-04-23T04:31:19.966Z,12.50
2018-04-23T04:33:48.160Z,12.33
2018-04-23T04:36:16.377Z,12.70
2018-04-23T04:38:43.849Z,13.00
2018-04-23T04:41:12.188Z,12.30
2018-04-23T04:43:39.600Z,12.40
2018-04-23T04:46:07.083Z,13.37
2018-04-23T04:48:34.536Z,12.00
2018-04-23T04:51:02.006Z,12.43
2018-04-23T04:53:29.413Z,12.68
2018-04-23T04:55:56.861Z,13.37
2018-04-23T04:58:24.268Z,14.67
2018-04-23T05:00:51.705Z,13.47
2018-04-23T05:03:19.183Z,14.63
2018-04-23T05:05:46.610Z,14.13
2018-04-23T05:08:14.076Z,15.00
2018-04-23T05:10:43.211Z,15.63
2018-04-23T05:13:10.628Z,15.13
2018-04-23T05:15:38.061Z,16.30
2018-04-23T05:18:05.480Z,15.67
2018-04-23T05:20:32.976Z,16.60
2018-04-23T05:23:00.420Z,16.73
2018-04-23T05:25:27.922Z,18.47
2018-04-23T05:27:55.424Z,18.27
2018-04-23T05:30:22.849Z,19.23
2018-04-23T05:32:50.279Z,18.73
2018-04-23T05:35:18.482Z,19.23
2018-04-23T05:37:46.663Z,20.73
2018-04-23T05:40:14.089Z,19.83
2018-04-23T05:42:41.517Z,19.73
2018-04-23T05:45:08.951Z,20.17
2018-04-23T05:47:36.393Z,19.53
2018-04-23T05:50:03.836Z,19.70
2018-04-23T05:52:32.010Z,20.33
2018-04-23T05:54:59.463Z,19.90
2018-04-23T05:57:27.653Z,21.80
2018-04-23T05:59:55.073Z,22.60
2018-04-23T06:02:22.508Z,24.13
2018-04-23T06:04:49.943Z,23.27
2018-04-23T06:07:18.140Z,24.97
2018-04-23T06:09:46.409Z,24.27
2018-04-23T06:12:13.924Z,25.40
2018-04-23T06:14:41.340Z,25.47
2018-04-23T06:17:08.758Z,26.83
2018-04-23T06:19:36.193Z,26.77
2018-04-23T06:22:04.381Z,27.00
2018-04-23T06:24:32.598Z,28.17
2018-04-23T06:27:00.008Z,27.83
2018-04-23T06:29:27.429Z,28.60
2018-04-23T06:31:54.859Z,29.47
2018-04-23T06:34:22.378Z,29.40
2018-04-23T06:36:50.663Z,30.00
2018-04-23T06:39:18.108Z,30.93
2018-04-23T06:41:45.516Z,29.57
2018-04-23T06:44:13.047Z,29.63
2018-04-23T06:46:41.255Z,29.70
2018-04-23T06:49:09.432Z,28.90
2018-04-23T06:51:37.619Z,29.77
2018-04-23T06:54:05.833Z,27.17
2018-04-23T06:56:33.298Z,29.23
2018-04-23T06:59:00.753Z,28.23
2018-04-23T07:01:28.137Z,28.00
2018-04-23T07:03:55.609Z,27.87
2018-04-23T07:06:23.057Z,27.67
2018-04-23T07:08:51.241Z,27.63
2018-04-23T07:11:18.819Z,26.77
2018-04-23T07:13:46.272Z,29.03
2018-04-23T07:16:15.374Z,26.90
2018-04-23T07:18:43.594Z,28.20
2018-04-23T07:21:11.152Z,26.67
2018-04-23T07:23:39.320Z,26.70
2018-04-23T07:26:07.500Z,25.97
2018-04-23T07:28:35.695Z,26.90
2018-04-23T07:31:03.188Z,27.20
2018-04-23T07:33:30.607Z,26.53
2018-04-23T07:35:58.902Z,27.77
2018-04-23T07:38:26.302Z,25.53
2018-04-23T07:40:53.720Z,25.90
2018-04-23T07:43:21.213Z,26.37
2018-04-23T07:45:49.416Z,25.10
2018-04-23T07:48:16.830Z,25.53
2018-04-23T07:50:44.253Z,25.23
2018-04-23T07:53:11.678Z,24.93
2018-04-23T07:55:39.205Z,25.00
2018-04-23T07:58:06.620Z,23.20
2018-04-23T08:00:34.049Z,23.53
2018-04-23T08:03:01.490Z,24.53
2018-04-23T08:05:29.703Z,24.40
2018-04-23T08:07:57.129Z,27.85
2018-04-23T08:10:25.319Z,25.33
2018-04-23T08:12:52.745Z,24.67
2018-04-23T08:15:20.297Z,24.77
2018-04-23T08:17:47.700Z,25.00
2018-04-23T08:20:16.245Z,25.20
2018-04-23T08:22:43.663Z,26.10
2018-04-23T08:25:11.079Z,23.83
2018-04-23T08:27:38.503Z,24.23
2018-04-23T08:30:07.273Z,23.90
2018-04-23T08:32:34.705Z,22.50
2018-04-23T08:35:02.154Z,22.00
2018-04-23T08:37:29.572Z,21.93
2018-04-23T08:39:56.967Z,21.40
2018-04-23T08:42:24.392Z,21.37
2018-04-23T08:44:51.849Z,20.40
2018-04-23T08:47:20.662Z,20.40
2018-04-23T08:49:46.763Z,19.90
2018-04-23T08:52:14.987Z,21.30
2018-04-23T08:54:42.403Z,19.53
2018-04-23T08:57:10.627Z,20.57
2018-04-23T08:59:38.110Z,20.03
2018-04-23T09:02:05.591Z,19.00
2018-04-23T09:04:33.025Z,19.47
2018-04-23T09:07:01.200Z,18.07
2018-04-23T09:09:29.420Z,16.97
2018-04-23T09:11:56.816Z,16.90
2018-04-23T09:14:24.239Z,16.90
2018-04-23T09:16:52.413Z,16.17
2018-04-23T09:19:20.726Z,13.60
2018-04-23T09:21:48.899Z,13.73
2018-04-23T09:24:17.314Z,12.93
2018-04-23T09:26:44.805Z,11.80
2018-04-23T09:29:12.241Z,10.10
2018-04-23T09:31:39.733Z,10.63
2018-04-23T09:34:07.894Z,9.87
2018-04-23T09:36:35.475Z,11.23
2018-04-23T09:39:02.936Z,11.40
2018-04-23T09:41:31.119Z,11.43
2018-04-23T09:43:59.279Z,10.80
2018-04-23T09:46:27.601Z,10.40
2018-04-23T09:48:55.020Z,10.40
2018-04-23T09:51:22.441Z,10.45
2018-04-23T09:53:49.886Z,10.80
2018-04-23T09:56:18.675Z,11.00
2018-04-23T09:58:47.786Z,9.73
2018-04-23T10:01:21.420Z,9.67
2018-04-23T10:03:50.752Z,9.90
2018-04-23T10:06:18.937Z,10.03
2018-04-23T10:08:46.374Z,9.30
2018-04-23T10:11:14.547Z,9.47
2018-04-23T10:13:42.722Z,8.13
2018-04-23T10:16:10.165Z,7.80
2018-04-23T10:18:37.600Z,7.60
2018-04-23T10:21:05.074Z,7.50
2018-04-23T10:23:33.216Z,7.97
2018-04-23T10:26:01.392Z,8.00
2018-04-23T10:28:28.813Z,8.13
2018-04-23T10:30:56.242Z,9.13
2018-04-23T10:33:24.421Z,9.53
2018-04-23T10:35:51.830Z,9.63
2018-04-23T10:38:19.296Z,8.80
2018-04-23T10:40:46.767Z,9.40
2018-04-23T10:43:14.235Z,8.90
2018-04-23T10:45:42.423Z,8.80
2018-04-23T10:48:13.473Z,8.00
2018-04-23T10:50:40.897Z,7.93
2018-04-23T10:53:08.416Z,7.53
2018-04-23T10:55:36.604Z,7.83
2018-04-23T10:58:04.018Z,7.13
2018-04-23T11:00:31.415Z,7.80
2018-04-23T11:02:58.904Z,8.90
2018-04-23T11:05:26.327Z,9.20
2018-04-23T11:07:53.798Z,8.80
2018-04-23T11:10:21.241Z,8.90
2018-04-23T11:12:49.985Z,8.80
2018-04-23T11:15:19.079Z,8.63
2018-04-23T11:17:46.509Z,8.90
2018-04-23T11:20:13.916Z,8.73
2018-04-23T11:22:42.097Z,9.00
2018-04-23T11:25:09.521Z,8.90
2018-04-23T11:27:37.614Z,7.90
2018-04-23T11:30:05.051Z,7.30
2018-04-23T11:32:32.641Z,7.57
2018-04-23T11:35:00.915Z,6.87
2018-04-23T11:37:28.384Z,7.37
2018-04-23T11:39:55.855Z,7.20
2018-04-23T11:42:24.018Z,8.23
2018-04-23T11:44:52.216Z,7.97
2018-04-23T11:47:20.627Z,8.43
2018-04-23T11:49:48.033Z,9.33
2018-04-23T11:52:15.452Z,9.40
2018-04-23T11:54:42.884Z,8.10
2018-04-23T11:57:10.289Z,8.63
2018-04-23T11:59:37.706Z,9.30
2018-04-23T12:02:05.888Z,8.43
2018-04-23T12:04:33.349Z,6.80
2018-04-23T12:07:00.727Z,6.90
2018-04-23T12:09:28.132Z,6.90
2018-04-23T12:11:55.556Z,6.40
2018-04-23T12:14:23.073Z,6.50
2018-04-23T12:16:50.494Z,6.40
2018-04-23T12:19:17.926Z,6.73
2018-04-23T12:21:46.106Z,6.63
2018-04-23T12:24:13.577Z,7.00
2018-04-23T12:26:41.762Z,6.13
2018-04-23T12:29:09.172Z,6.57
2018-04-23T12:31:36.666Z,5.83
2018-04-23T12:34:04.183Z,6.33
2018-04-23T12:36:31.596Z,6.80
2018-04-23T12:38:59.018Z,6.33
2018-04-23T12:41:26.480Z,6.70
2018-04-23T12:43:54.637Z,6.60
2018-04-23T12:46:22.857Z,6.40
2018-04-23T12:48:51.613Z,6.00
2018-04-23T12:51:19.030Z,6.23
2018-04-23T12:53:46.444Z,6.00
2018-04-23T12:56:13.868Z,6.10
2018-04-23T12:58:41.290Z,6.50
2018-04-23T13:01:09.485Z,6.43
2018-04-23T13:03:37.674Z,6.77
2018-04-23T13:06:05.848Z,6.20
2018-04-23T13:08:34.041Z,6.73
2018-04-23T13:11:02.352Z,5.70
2018-04-23T13:13:29.820Z,7.40
2018-04-23T13:15:57.226Z,6.80
2018-04-23T13:18:24.669Z,5.97
2018-04-23T13:20:52.261Z,6.17
2018-04-23T13:23:19.729Z,6.30
2018-04-23T13:25:47.164Z,6.83
2018-04-23T13:28:14.585Z,7.00
2018-04-23T13:30:42.081Z,5.80
2018-04-23T13:33:10.264Z,6.60
2018-04-23T13:35:38.457Z,6.50
2018-04-23T13:38:06.621Z,6.80
2018-04-23T13:40:34.054Z,6.10
2018-04-23T13:43:01.465Z,6.50
2018-04-23T13:45:28.959Z,6.82
2018-04-23T13:47:56.387Z,6.80
2018-04-23T13:50:23.810Z,6.70
2018-04-23T13:52:52.802Z,7.00
2018-04-23T13:55:20.212Z,7.07
2018-04-23T13:57:47.647Z,6.33
2018-04-23T14:00:15.216Z,6.63
2018-04-23T14:02:43.402Z,6.50
2018-04-23T14:05:11.592Z,6.63
2018-04-23T14:07:39.056Z,6.83
2018-04-23T14:10:07.256Z,6.60
2018-04-23T14:12:34.669Z,6.93
2018-04-23T14:15:02.091Z,6.40
2018-04-23T14:17:29.509Z,6.77
2018-04-23T14:19:57.013Z,7.10
2018-04-23T14:22:25.160Z,6.13
2018-04-23T14:24:52.613Z,6.33
2018-04-23T14:27:20.056Z,6.50
2018-04-23T14:29:47.459Z,6.43
2018-04-23T14:32:14.874Z,6.60
2018-04-23T14:34:42.289Z,6.70
2018-04-23T14:37:09.734Z,6.30
2018-04-23T14:39:38.205Z,6.17
2018-04-23T14:42:05.628Z,7.07
2018-04-23T14:44:33.285Z,6.50
2018-04-23T14:47:00.727Z,6.57
2018-04-23T14:49:28.963Z,6.30
2018-04-23T14:51:57.148Z,7.27
2018-04-23T14:54:24.664Z,6.83
2018-04-23T14:56:53.016Z,7.20
2018-04-23T14:59:21.217Z,7.70
2018-04-23T15:01:49.385Z,8.30
2018-04-23T15:04:16.796Z,7.70
2018-04-23T15:06:44.212Z,7.50
2018-04-23T15:09:11.625Z,6.63
2018-04-23T15:11:39.049Z,6.10
2018-04-23T15:14:06.448Z,7.90
2018-04-23T15:16:33.870Z,6.77
2018-04-23T15:19:01.308Z,7.20
2018-04-23T15:21:28.723Z,7.27
2018-04-23T15:23:56.909Z,7.73
2018-04-23T15:26:24.340Z,7.63
2018-04-23T15:28:51.752Z,7.40
2018-04-23T15:31:19.943Z,8.00
2018-04-23T15:33:48.120Z,7.77
2018-04-23T15:36:16.326Z,7.30
2018-04-23T15:38:44.514Z,7.10
2018-04-23T15:41:12.220Z,7.90
2018-04-23T15:43:39.673Z,7.67
2018-04-23T15:46:07.114Z,7.63
2018-04-23T15:48:35.279Z,7.17
2018-04-23T15:51:02.754Z,7.00
2018-04-23T15:53:30.251Z,7.37
2018-04-23T15:55:57.661Z,7.70
2018-04-23T15:58:25.129Z,7.70
2018-04-23T16:00:52.566Z,8.90
2018-04-23T16:03:20.775Z,7.93
2018-04-23T16:05:48.209Z,8.27
2018-04-23T16:08:16.381Z,8.37
2018-04-23T16:10:44.593Z,8.37
2018-04-23T16:13:12.744Z,8.00
2018-04-23T16:15:40.161Z,7.37
2018-04-23T16:18:07.581Z,8.27
2018-04-23T16:20:35.007Z,8.00
2018-04-23T16:23:03.472Z,8.68
2018-04-23T16:25:30.882Z,8.87
2018-04-23T16:27:58.320Z,7.73
2018-04-23T16:30:25.711Z,8.17
2018-04-23T16:32:53.153Z,8.43
2018-04-23T16:35:21.328Z,8.30
2018-04-23T16:37:48.803Z,7.67
2018-04-23T16:40:16.215Z,7.90
2018-04-23T16:42:43.641Z,8.00
2018-04-23T16:45:11.051Z,7.70
2018-04-23T16:47:38.621Z,7.63
2018-04-23T16:50:06.041Z,7.50
2018-04-23T16:52:33.449Z,7.73
2018-04-23T16:55:00.860Z,7.60
2018-04-23T16:57:29.057Z,7.60
2018-04-23T16:59:56.480Z,7.07
2018-04-23T17:02:24.924Z,7.93
2018-04-23T17:04:52.332Z,7.23
2018-04-23T17:07:19.762Z,7.80
2018-04-23T17:09:47.201Z,7.63
2018-04-23T17:12:14.607Z,10.67
2018-04-23T17:14:42.058Z,7.77
2018-04-23T17:17:09.476Z,7.30
2018-04-23T17:19:36.901Z,7.77
2018-04-23T17:22:04.320Z,7.70
2018-04-23T17:24:31.829Z,7.57
2018-04-23T17:26:59.259Z,7.00
2018-04-23T17:29:26.886Z,7.80
2018-04-23T17:31:55.972Z,6.80
2018-04-23T17:34:23.389Z,6.10
2018-04-23T17:36:50.789Z,6.13
2018-04-23T17:39:18.980Z,6.17
2018-04-23T17:41:47.218Z,6.27
2018-04-23T17:44:15.347Z,6.40
2018-04-23T17:46:42.756Z,5.37
2018-04-23T17:49:10.215Z,5.73
2018-04-23T17:51:37.632Z,5.60
2018-04-23T17:54:05.162Z,5.57
2018-04-23T17:56:32.641Z,5.67
2018-04-23T17:59:00.066Z,5.60
2018-04-23T18:01:28.244Z,5.83
2018-04-23T18:03:56.464Z,5.50
2018-04-23T18:06:25.553Z,5.87
2018-04-23T18:08:53.760Z,5.27
2018-04-23T18:11:21.171Z,4.87
2018-04-23T18:13:48.609Z,5.47
2018-04-23T18:16:16.290Z,5.30
2018-04-23T18:18:43.848Z,5.10
2018-04-23T18:21:12.031Z,5.13
2018-04-23T18:23:40.203Z,5.23
2018-04-23T18:26:07.629Z,4.60
2018-04-23T18:28:35.055Z,5.10
2018-04-23T18:31:03.477Z,5.10
2018-04-23T18:33:30.880Z,4.93
2018-04-23T18:35:59.099Z,5.00
2018-04-23T18:38:26.508Z,4.47
2018-04-23T18:40:53.918Z,5.17
2018-04-23T18:43:21.336Z,5.00
2018-04-23T18:45:48.755Z,5.53
2018-04-23T18:48:16.163Z,5.03
2018-04-23T18:50:43.597Z,5.30
2018-04-23T18:53:11.890Z,5.10
2018-04-23T18:55:39.377Z,4.57
2018-04-23T18:58:07.519Z,5.53
2018-04-23T19:00:35.025Z,5.37
2018-04-23T19:03:02.444Z,5.03
2018-04-23T19:05:29.967Z,5.03
2018-04-23T19:07:57.417Z,4.80
2018-04-23T19:10:24.829Z,5.40
2018-04-23T19:12:52.248Z,5.13
2018-04-23T19:15:19.670Z,5.00
2018-04-23T19:17:47.094Z,5.10
2018-04-23T19:20:14.545Z,4.87
2018-04-23T19:22:42.046Z,4.60
2018-04-23T19:25:09.505Z,5.00
2018-04-23T19:27:36.895Z,4.97
2018-04-23T19:30:04.334Z,5.13
2018-04-23T19:32:31.768Z,4.87
2018-04-23T19:34:59.265Z,4.57
2018-04-23T19:37:27.753Z,4.65
2018-04-23T19:39:55.920Z,4.87
2018-04-23T19:42:23.342Z,5.03
2018-04-23T19:44:50.748Z,4.90
2018-04-23T19:47:18.153Z,4.87
2018-04-23T19:49:45.564Z,4.23
2018-04-23T19:52:12.977Z,4.30
2018-04-23T19:54:41.153Z,4.60
2018-04-23T19:57:09.343Z,4.93
2018-04-23T19:59:37.509Z,4.17
2018-04-23T20:02:04.937Z,3.77
2018-04-23T20:04:32.422Z,4.33
2018-04-23T20:06:59.810Z,3.90
2018-04-23T20:09:28.204Z,3.90
2018-04-23T20:11:55.612Z,4.17
2018-04-23T20:14:23.076Z,4.67
2018-04-23T20:16:50.520Z,3.80
2018-04-23T20:19:18.031Z,4.00
2018-04-23T20:21:45.526Z,4.43
2018-04-23T20:24:12.992Z,3.97
2018-04-23T20:26:40.500Z,3.73
2018-04-23T20:29:07.968Z,4.40
2018-04-23T20:31:35.466Z,3.57
2018-04-23T20:34:02.959Z,3.73
2018-04-23T20:36:30.410Z,3.73
2018-04-23T20:38:57.992Z,3.60
2018-04-23T20:41:25.489Z,3.80
2018-04-23T20:43:52.924Z,4.03
2018-04-23T20:46:21.224Z,3.93
2018-04-23T20:48:48.629Z,4.43
2018-04-23T20:51:16.145Z,4.10
2018-04-23T20:53:43.577Z,4.27
2018-04-23T20:56:10.973Z,4.03
2018-04-23T20:58:38.389Z,3.80
2018-04-23T21:01:05.927Z,3.87
2018-04-23T21:03:34.123Z,4.40
2018-04-23T21:06:01.581Z,4.40
2018-04-23T21:08:28.989Z,4.10
2018-04-23T21:10:56.395Z,4.20
2018-04-23T21:13:24.568Z,4.43
2018-04-23T21:15:52.742Z,4.40
2018-04-23T21:18:20.172Z,5.60
2018-04-23T21:20:47.585Z,4.33
2018-04-23T21:23:14.997Z,5.10
2018-04-23T21:25:42.414Z,4.53
2018-04-23T21:28:09.885Z,4.53
2018-04-23T21:30:37.401Z,4.20
2018-04-23T21:33:05.693Z,4.93
2018-04-23T21:35:33.115Z,4.67
2018-04-23T21:38:00.521Z,4.60
2018-04-23T21:40:28.876Z,5.10
2018-04-23T21:42:57.051Z,4.97
2018-04-23T21:45:24.468Z,5.30
2018-04-23T21:47:51.939Z,5.60
2018-04-23T21:50:19.340Z,5.50
2018-04-23T21:52:46.762Z,5.33
2018-04-23T21:55:14.193Z,5.35
2018-04-23T21:57:41.596Z,5.23
2018-04-23T22:00:09.007Z,4.77
2018-04-23T22:02:36.477Z,5.03
2018-04-23T22:05:04.587Z,5.20
2018-04-23T22:07:32.012Z,4.77
2018-04-23T22:09:59.417Z,5.77
2018-04-23T22:12:26.843Z,5.63
2018-04-23T22:14:54.301Z,4.93
2018-04-23T22:17:22.477Z,5.13
2018-04-23T22:19:50.645Z,4.50
2018-04-23T22:22:18.823Z,4.93
2018-04-23T22:24:46.996Z,5.17
2018-04-23T22:27:14.416Z,4.63
2018-04-23T22:29:41.886Z,5.00
2018-04-23T22:32:09.364Z,4.70
2018-04-23T22:34:36.815Z,4.70
2018-04-23T22:37:04.243Z,5.30
2018-04-23T22:39:31.640Z,4.53
2018-04-23T22:42:00.636Z,5.00
2018-04-23T22:44:29.789Z,4.30
2018-04-23T22:46:57.233Z,5.17
2018-04-23T22:49:24.751Z,4.33
2018-04-23T22:51:52.175Z,4.57
2018-04-23T22:54:19.603Z,5.83
2018-04-23T22:56:47.012Z,4.53
2018-04-23T22:59:14.428Z,4.90
2018-04-23T23:01:41.833Z,4.53
2018-04-23T23:04:09.254Z,4.20
2018-04-23T23:06:36.677Z,4.30
2018-04-23T23:09:05.686Z,4.63
2018-04-23T23:11:33.088Z,4.30
2018-04-23T23:14:00.516Z,4.43
2018-04-23T23:16:27.916Z,4.20
2018-04-23T23:18:55.356Z,4.50
2018-04-23T23:21:23.528Z,3.93
2018-04-23T23:23:50.957Z,4.50
2018-04-23T23:26:18.369Z,4.20
2018-04-23T23:28:45.772Z,4.23
2018-04-23T23:31:13.228Z,5.17
2018-04-23T23:33:40.686Z,4.13
2018-04-23T23:36:08.083Z,4.30
2018-04-23T23:38:35.500Z,4.70
2018-04-23T23:41:03.699Z,4.50
2018-04-23T23:43:31.176Z,5.03
2018-04-23T23:45:58.589Z,4.67
2018-04-23T23:48:26.012Z,4.77
2018-04-23T23:50:53.421Z,4.10
2018-04-23T23:53:20.858Z,4.63
2018-04-23T23:55:48.273Z,4.60
2018-04-23T23:58:15.688Z,4.70
